createdAt,value
2022-10-08T00:05:12.045Z,7.60
2022-10-08T00:10:38.839Z,6.20
2022-10-08T00:16:04.959Z,5.70
2022-10-08T00:21:32.483Z,6.45
2022-10-08T00:26:57.195Z,6.38
2022-10-08T00:32:23.254Z,6.68
2022-10-08T00:37:47.915Z,6.72
2022-10-08T00:43:17.064Z,6.88
2022-10-08T00:48:43.824Z,6.43
2022-10-08T00:54:09.366Z,6.72
2022-10-08T00:59:34.301Z,6.47
2022-10-08T01:05:02.462Z,6.53
2022-10-08T01:10:35.650Z,6.88
2022-10-08T01:16:08.966Z,6.60
2022-10-08T01:21:43.431Z,6.22
2022-10-08T01:27:21.643Z,4.95
2022-10-08T01:32:52.379Z,4.97
2022-10-08T01:38:20.502Z,5.38
2022-10-08T01:43:51.643Z,6.07
2022-10-08T01:49:19.409Z,6.68
2022-10-08T01:54:47.115Z,5.37
2022-10-08T02:00:15.916Z,6.65
2022-10-08T02:05:46.084Z,6.45
2022-10-08T02:11:12.644Z,5.82
2022-10-08T02:16:44.324Z,6.47
2022-10-08T02:22:08.930Z,6.55
2022-10-08T02:27:44.671Z,5.38
2022-10-08T02:33:16.847Z,6.35
2022-10-08T02:38:46.317Z,6.43
2022-10-08T02:44:15.704Z,7.03
2022-10-08T02:49:46.331Z,6.97
2022-10-08T02:55:20.637Z,7.28
2022-10-08T03:00:51.497Z,7.85
2022-10-08T03:06:19.093Z,8.10
2022-10-08T03:11:44.885Z,9.65
2022-10-08T03:17:15.172Z,9.05
2022-10-08T03:22:42.082Z,8.75
2022-10-08T03:28:06.483Z,8.32
2022-10-08T03:33:31.107Z,10.73
2022-10-08T03:38:57.270Z,8.20
2022-10-08T03:44:22.785Z,8.45
2022-10-08T03:49:48.210Z,6.57
2022-10-08T03:55:14.004Z,7.28
2022-10-08T04:00:42.771Z,6.47
2022-10-08T04:06:08.805Z,6.63
2022-10-08T04:11:34.707Z,8.38
2022-10-08T04:17:00.605Z,8.88
2022-10-08T04:22:25.334Z,8.48
2022-10-08T04:27:51.876Z,9.10
2022-10-08T04:33:16.314Z,9.77
2022-10-08T04:38:44.276Z,8.98
2022-10-08T04:44:11.142Z,10.02
2022-10-08T04:49:35.853Z,8.90
2022-10-08T04:55:00.362Z,8.73
2022-10-08T05:00:27.660Z,6.60
2022-10-08T05:05:52.684Z,5.38
2022-10-08T05:11:19.578Z,5.60
2022-10-08T05:16:46.039Z,4.70
2022-10-08T05:22:10.722Z,5.15
2022-10-08T05:27:36.132Z,5.13
2022-10-08T05:33:02.769Z,6.00
2022-10-08T05:38:30.282Z,5.03
2022-10-08T05:44:02.016Z,4.65
2022-10-08T05:49:31.077Z,4.10
2022-10-08T05:54:56.253Z,4.85
2022-10-08T06:00:21.643Z,5.13
2022-10-08T06:05:47.614Z,5.05
2022-10-08T06:11:13.461Z,5.15
2022-10-08T06:16:38.290Z,4.90
2022-10-08T06:22:06.242Z,5.75
2022-10-08T06:27:32.210Z,5.47
2022-10-08T06:32:56.859Z,4.70
2022-10-08T06:38:24.462Z,4.32
2022-10-08T06:43:50.331Z,4.75
2022-10-08T06:49:14.287Z,4.93
2022-10-08T06:54:41.416Z,5.30
2022-10-08T07:00:07.715Z,5.15
2022-10-08T07:05:31.687Z,5.30
2022-10-08T07:10:57.523Z,5.00
2022-10-08T07:16:25.538Z,4.35
2022-10-08T07:21:49.503Z,6.22
2022-10-08T07:27:15.921Z,5.05
2022-10-08T07:32:40.135Z,5.55
2022-10-08T07:38:05.326Z,5.03
2022-10-08T07:43:32.630Z,4.13
2022-10-08T07:48:59.241Z,4.35
2022-10-08T07:54:24.002Z,3.63
2022-10-08T07:59:49.755Z,3.72
2022-10-08T08:05:13.943Z,4.50
2022-10-08T08:10:38.239Z,3.53
2022-10-08T08:16:07.589Z,4.05
2022-10-08T08:21:35.279Z,4.40
2022-10-08T08:27:00.349Z,5.73
2022-10-08T08:32:28.650Z,4.45
2022-10-08T08:37:53.544Z,4.30
2022-10-08T08:43:18.740Z,3.40
2022-10-08T08:48:46.945Z,3.45
2022-10-08T08:54:10.721Z,3.20
2022-10-08T08:59:38.163Z,3.88
2022-10-08T09:05:09.075Z,3.25
2022-10-08T09:10:44.046Z,3.22
2022-10-08T09:16:12.287Z,2.92
2022-10-08T09:21:40.844Z,2.65
2022-10-08T09:27:14.396Z,2.30
2022-10-08T09:32:40.419Z,2.83
2022-10-08T09:38:06.394Z,2.17
2022-10-08T09:43:31.066Z,3.45
2022-10-08T09:48:54.765Z,2.65
2022-10-08T09:54:24.726Z,2.47
2022-10-08T09:59:53.948Z,2.50
2022-10-08T10:05:24.311Z,3.22
2022-10-08T10:10:49.990Z,2.28
2022-10-08T10:16:19.305Z,2.08
2022-10-08T10:21:52.845Z,2.20
2022-10-08T10:27:24.706Z,2.78
2022-10-08T10:32:54.906Z,2.65
2022-10-08T10:38:25.155Z,2.75
2022-10-08T10:43:54.210Z,2.15
2022-10-08T10:49:20.186Z,2.00
2022-10-08T10:54:57.256Z,1.90
2022-10-08T11:00:27.606Z,2.63
2022-10-08T11:05:58.470Z,3.03
2022-10-08T11:11:34.751Z,2.10
2022-10-08T11:17:10.603Z,2.53
2022-10-08T11:22:41.147Z,3.00
2022-10-08T11:28:21.440Z,3.30
2022-10-08T11:33:48.828Z,3.65
2022-10-08T11:39:20.931Z,2.67
2022-10-08T11:44:45.394Z,2.25
2022-10-08T11:50:24.353Z,2.92
2022-10-08T11:55:52.470Z,2.30
2022-10-08T12:01:17.094Z,2.97
2022-10-08T12:06:46.088Z,2.75
2022-10-08T12:12:14.697Z,4.80
2022-10-08T12:17:53.357Z,3.60
2022-10-08T12:23:40.149Z,3.47
2022-10-08T12:29:04.325Z,4.05
2022-10-08T12:34:29.003Z,2.90
2022-10-08T12:39:57.261Z,2.65
2022-10-08T12:45:28.008Z,2.58
2022-10-08T12:51:03.694Z,3.53
2022-10-08T12:56:30.958Z,3.88
2022-10-08T13:01:55.834Z,3.58
2022-10-08T13:07:26.027Z,2.63
2022-10-08T13:13:05.713Z,2.60
2022-10-08T13:18:31.412Z,2.47
2022-10-08T13:23:56.181Z,2.50
2022-10-08T13:29:33.667Z,3.13
2022-10-08T13:34:59.683Z,2.78
2022-10-08T13:40:25.338Z,3.42
2022-10-08T13:45:50.990Z,4.03
2022-10-08T13:51:15.403Z,4.00
2022-10-08T13:56:40.109Z,3.63
2022-10-08T14:02:06.686Z,4.30
2022-10-08T14:07:37.100Z,3.57
2022-10-08T14:13:01.627Z,4.25
2022-10-08T14:18:27.771Z,3.53
2022-10-08T14:23:53.247Z,3.25
2022-10-08T14:29:20.728Z,3.92
2022-10-08T14:34:51.023Z,4.25
2022-10-08T14:40:17.997Z,5.00
2022-10-08T14:45:41.929Z,4.20
2022-10-08T14:51:07.858Z,4.18
2022-10-08T14:56:32.082Z,4.78
2022-10-08T15:01:56.566Z,5.43
2022-10-08T15:07:23.191Z,5.88
2022-10-08T15:12:47.439Z,6.85
2022-10-08T15:18:13.069Z,5.55
2022-10-08T15:23:38.439Z,4.85
2022-10-08T15:29:02.915Z,5.40
2022-10-08T15:34:27.030Z,4.65
2022-10-08T15:39:53.293Z,4.90
2022-10-08T15:45:17.248Z,6.13
2022-10-08T15:50:42.819Z,8.57
2022-10-08T15:56:11.866Z,6.65
2022-10-08T16:01:36.965Z,8.32
2022-10-08T16:07:01.665Z,7.75
2022-10-08T16:12:27.006Z,9.35
2022-10-08T16:17:52.328Z,7.85
2022-10-08T16:23:16.590Z,8.65
2022-10-08T16:28:42.567Z,9.05
2022-10-08T16:34:12.096Z,7.75
2022-10-08T16:39:36.755Z,5.47
2022-10-08T16:45:02.744Z,5.45
2022-10-08T16:50:26.961Z,5.20
2022-10-08T16:55:52.090Z,5.13
2022-10-08T17:01:17.735Z,5.68
2022-10-08T17:06:45.046Z,4.40
2022-10-08T17:12:09.922Z,4.72
2022-10-08T17:17:36.776Z,5.10
2022-10-08T17:23:01.687Z,5.53
2022-10-08T17:28:28.372Z,5.15
2022-10-08T17:33:54.386Z,7.10
2022-10-08T17:39:18.286Z,9.25
2022-10-08T17:44:42.561Z,6.50
2022-10-08T17:50:09.221Z,5.85
2022-10-08T17:55:34.764Z,5.63
2022-10-08T18:01:06.856Z,6.63
2022-10-08T18:06:34.724Z,8.52
2022-10-08T18:11:59.708Z,7.80
2022-10-08T18:17:24.266Z,7.80
2022-10-08T18:22:51.152Z,8.85
2022-10-08T18:28:32.176Z,6.32
2022-10-08T18:34:38.673Z,7.72
2022-10-08T18:41:13.707Z,6.80
2022-10-08T18:46:59.677Z,6.43
2022-10-08T18:52:55.279Z,6.30
2022-10-08T18:58:43.985Z,6.30
2022-10-08T19:04:19.894Z,7.28
2022-10-08T19:09:55.086Z,6.18
2022-10-08T19:15:30.458Z,6.38
2022-10-08T19:20:58.770Z,6.25
2022-10-08T19:26:39.022Z,5.83
2022-10-08T19:32:10.783Z,5.63
2022-10-08T19:37:35.432Z,5.57
2022-10-08T19:43:00.244Z,5.85
2022-10-08T19:48:26.731Z,5.35
2022-10-08T19:53:52.441Z,5.28
2022-10-08T19:59:17.663Z,5.05
2022-10-08T20:04:44.926Z,5.57
2022-10-08T20:10:10.121Z,6.22
2022-10-08T20:15:36.869Z,5.25
2022-10-08T20:21:05.942Z,5.35
2022-10-08T20:26:32.409Z,5.57
2022-10-08T20:31:57.541Z,5.15
2022-10-08T20:37:24.273Z,5.45
2022-10-08T20:42:50.429Z,6.13
2022-10-08T20:48:14.937Z,6.65
2022-10-08T20:53:40.919Z,5.75
2022-10-08T20:59:05.713Z,5.72
2022-10-08T21:04:29.831Z,5.32
2022-10-08T21:09:55.553Z,4.85
2022-10-08T21:15:20.719Z,5.28
2022-10-08T21:20:44.913Z,5.35
2022-10-08T21:26:13.925Z,5.70
2022-10-08T21:31:39.783Z,5.60
2022-10-08T21:37:03.716Z,5.22
2022-10-08T21:42:30.377Z,4.82
2022-10-08T21:47:55.998Z,5.25
2022-10-08T21:53:20.663Z,5.07
2022-10-08T21:58:49.578Z,4.93
2022-10-08T22:04:15.798Z,6.03
2022-10-08T22:09:39.770Z,5.20
2022-10-08T22:15:05.366Z,5.55
2022-10-08T22:20:29.998Z,5.07
2022-10-08T22:25:57.111Z,5.97
2022-10-08T22:31:22.909Z,7.07
2022-10-08T22:36:47.235Z,7.47
2022-10-08T22:42:11.415Z,7.95
2022-10-08T22:47:36.948Z,9.00
2022-10-08T22:53:00.996Z,9.43
2022-10-08T22:58:25.985Z,9.02
2022-10-08T23:03:51.545Z,8.38
2022-10-08T23:09:16.084Z,8.70
2022-10-08T23:14:40.779Z,8.50
2022-10-08T23:20:07.950Z,7.07
2022-10-08T23:25:32.024Z,7.47
2022-10-08T23:30:56.783Z,6.60
2022-10-08T23:36:25.576Z,6.35
2022-10-08T23:41:50.290Z,7.00
2022-10-08T23:47:14.902Z,6.22
2022-10-08T23:52:41.278Z,6.15
2022-10-08T23:58:05.718Z,5.80
